sensor_id;sensor_type;location;lat;lon;timestamp;temperature;humidity
15095;DHT22;7648;52.264;9.632;2024-03-08T00:01:22;2.10;99.90
15095;DHT22;7648;52.264;9.632;2024-03-08T00:05:26;2.10;99.90
15095;DHT22;7648;52.264;9.632;2024-03-08T00:09:28;2.10;99.90
15095;DHT22;7648;52.264;9.632;2024-03-08T00:13:31;2.00;99.90
15095;DHT22;7648;52.264;9.632;2024-03-08T00:17:33;2.10;99.90
15095;DHT22;7648;52.264;9.632;2024-03-08T00:21:36;2.10;99.90
15095;DHT22;7648;52.264;9.632;2024-03-08T00:25:38;2.10;99.90
15095;DHT22;7648;52.264;9.632;2024-03-08T00:29:40;2.00;99.90
15095;DHT22;7648;52.264;9.632;2024-03-08T00:33:42;2.00;99.90
15095;DHT22;7648;52.264;9.632;2024-03-08T00:37:46;2.00;99.90
15095;DHT22;7648;52.264;9.632;2024-03-08T00:41:48;2.00;99.90
15095;DHT22;7648;52.264;9.632;2024-03-08T00:45:50;1.90;99.90
15095;DHT22;7648;52.264;9.632;2024-03-08T00:49:52;1.90;99.90
15095;DHT22;7648;52.264;9.632;2024-03-08T00:53:58;1.80;99.90
15095;DHT22;7648;52.264;9.632;2024-03-08T00:58:00;1.80;99.90
15095;DHT22;7648;52.264;9.632;2024-03-08T01:02:03;1.70;99.90
15095;DHT22;7648;52.264;9.632;2024-03-08T01:06:05;1.70;99.90
15095;DHT22;7648;52.264;9.632;2024-03-08T01:10:09;1.70;99.90
15095;DHT22;7648;52.264;9.632;2024-03-08T01:14:11;1.80;99.90
15095;DHT22;7648;52.264;9.632;2024-03-08T01:18:13;1.70;99.90
15095;DHT22;7648;52.264;9.632;2024-03-08T01:22:15;1.70;99.90
15095;DHT22;7648;52.264;9.632;2024-03-08T01:26:18;1.70;99.90
15095;DHT22;7648;52.264;9.632;2024-03-08T01:30:20;1.60;99.90
15095;DHT22;7648;52.264;9.632;2024-03-08T01:34:22;1.60;99.90
15095;DHT22;7648;52.264;9.632;2024-03-08T01:38:24;1.60;99.90
15095;DHT22;7648;52.264;9.632;2024-03-08T01:42:28;1.60;99.90
15095;DHT22;7648;52.264;9.632;2024-03-08T01:46:30;1.50;99.90
15095;DHT22;7648;52.264;9.632;2024-03-08T01:50:32;1.40;99.90
15095;DHT22;7648;52.264;9.632;2024-03-08T01:54:36;1.40;99.90
15095;DHT22;7648;52.264;9.632;2024-03-08T01:58:40;1.30;99.90
15095;DHT22;7648;52.264;9.632;2024-03-08T02:02:43;1.30;99.90
15095;DHT22;7648;52.264;9.632;2024-03-08T02:06:47;1.20;99.90
15095;DHT22;7648;52.264;9.632;2024-03-08T02:10:49;1.20;99.90
15095;DHT22;7648;52.264;9.632;2024-03-08T02:14:53;1.20;99.90
15095;DHT22;7648;52.264;9.632;2024-03-08T02:18:56;1.20;99.90
15095;DHT22;7648;52.264;9.632;2024-03-08T02:22:59;1.10;99.90
15095;DHT22;7648;52.264;9.632;2024-03-08T02:27:01;1.10;99.90
15095;DHT22;7648;52.264;9.632;2024-03-08T02:31:03;1.10;99.90
15095;DHT22;7648;52.264;9.632;2024-03-08T02:35:08;1.10;99.90
15095;DHT22;7648;52.264;9.632;2024-03-08T02:39:12;1.10;99.90
15095;DHT22;7648;52.264;9.632;2024-03-08T02:43:15;1.00;99.90
15095;DHT22;7648;52.264;9.632;2024-03-08T02:47:18;1.00;99.90
15095;DHT22;7648;52.264;9.632;2024-03-08T02:51:21;0.90;99.90
15095;DHT22;7648;52.264;9.632;2024-03-08T02:55:24;0.90;99.90
15095;DHT22;7648;52.264;9.632;2024-03-08T02:59:27;0.80;99.90
15095;DHT22;7648;52.264;9.632;2024-03-08T03:03:29;0.80;99.90
15095;DHT22;7648;52.264;9.632;2024-03-08T03:07:31;0.70;99.90
15095;DHT22;7648;52.264;9.632;2024-03-08T03:11:35;0.70;99.90
15095;DHT22;7648;52.264;9.632;2024-03-08T03:15:38;0.60;99.90
15095;DHT22;7648;52.264;9.632;2024-03-08T03:19:42;0.60;99.90
15095;DHT22;7648;52.264;9.632;2024-03-08T03:23:44;0.60;99.90
15095;DHT22;7648;52.264;9.632;2024-03-08T03:27:47;0.50;99.90
15095;DHT22;7648;52.264;9.632;2024-03-08T03:31:50;0.50;99.90
15095;DHT22;7648;52.264;9.632;2024-03-08T03:35:53;0.50;99.90
15095;DHT22;7648;52.264;9.632;2024-03-08T03:39:55;0.40;99.90
15095;DHT22;7648;52.264;9.632;2024-03-08T03:43:59;0.40;99.90
15095;DHT22;7648;52.264;9.632;2024-03-08T03:48:02;0.40;99.90
15095;DHT22;7648;52.264;9.632;2024-03-08T03:52:05;0.30;99.90
15095;DHT22;7648;52.264;9.632;2024-03-08T03:56:07;0.30;99.90
15095;DHT22;7648;52.264;9.632;2024-03-08T04:00:11;0.30;99.90
15095;DHT22;7648;52.264;9.632;2024-03-08T04:04:16;0.30;99.90
15095;DHT22;7648;52.264;9.632;2024-03-08T04:08:18;0.30;99.90
15095;DHT22;7648;52.264;9.632;2024-03-08T04:12:20;0.20;99.90
15095;DHT22;7648;52.264;9.632;2024-03-08T04:16:25;0.20;99.90
15095;DHT22;7648;52.264;9.632;2024-03-08T04:20:27;0.20;99.90
15095;DHT22;7648;52.264;9.632;2024-03-08T04:24:29;0.20;99.90
15095;DHT22;7648;52.264;9.632;2024-03-08T04:28:32;0.10;99.90
15095;DHT22;7648;52.264;9.632;2024-03-08T04:32:35;0.10;99.90
15095;DHT22;7648;52.264;9.632;2024-03-08T04:36:38;0.00;99.90
15095;DHT22;7648;52.264;9.632;2024-03-08T04:40:40;0.00;99.90
15095;DHT22;7648;52.264;9.632;2024-03-08T04:44:42;-0.10;99.90
15095;DHT22;7648;52.264;9.632;2024-03-08T04:48:45;-0.10;99.90
15095;DHT22;7648;52.264;9.632;2024-03-08T04:52:47;-0.10;99.90
15095;DHT22;7648;52.264;9.632;2024-03-08T04:56:49;-0.20;99.90
15095;DHT22;7648;52.264;9.632;2024-03-08T05:00:51;-0.30;99.90
15095;DHT22;7648;52.264;9.632;2024-03-08T05:04:55;-0.30;99.90
15095;DHT22;7648;52.264;9.632;2024-03-08T05:08:57;-0.40;99.90
15095;DHT22;7648;52.264;9.632;2024-03-08T05:12:59;-0.40;99.90
15095;DHT22;7648;52.264;9.632;2024-03-08T05:17:01;-0.50;99.90
15095;DHT22;7648;52.264;9.632;2024-03-08T05:21:04;-0.50;99.90
15095;DHT22;7648;52.264;9.632;2024-03-08T05:25:06;-0.50;99.90
15095;DHT22;7648;52.264;9.632;2024-03-08T05:29:09;-0.60;99.90
15095;DHT22;7648;52.264;9.632;2024-03-08T05:33:11;-0.60;99.90
15095;DHT22;7648;52.264;9.632;2024-03-08T05:37:16;-0.60;99.90
15095;DHT22;7648;52.264;9.632;2024-03-08T05:41:18;-0.60;99.90
15095;DHT22;7648;52.264;9.632;2024-03-08T05:45:20;-0.60;99.90
15095;DHT22;7648;52.264;9.632;2024-03-08T05:49:22;-0.60;99.90
15095;DHT22;7648;52.264;9.632;2024-03-08T05:53:27;-0.50;99.90
15095;DHT22;7648;52.264;9.632;2024-03-08T05:57:32;-0.50;99.90
15095;DHT22;7648;52.264;9.632;2024-03-08T06:01:34;-0.50;99.90
15095;DHT22;7648;52.264;9.632;2024-03-08T06:05:36;-0.50;99.90
15095;DHT22;7648;52.264;9.632;2024-03-08T06:09:42;-0.50;99.90
15095;DHT22;7648;52.264;9.632;2024-03-08T06:13:46;-0.50;99.90
15095;DHT22;7648;52.264;9.632;2024-03-08T06:17:48;-0.40;99.90
15095;DHT22;7648;52.264;9.632;2024-03-08T06:21:50;-0.40;99.90
15095;DHT22;7648;52.264;9.632;2024-03-08T06:25:54;-0.30;99.90
15095;DHT22;7648;52.264;9.632;2024-03-08T06:29:56;-0.30;99.90
15095;DHT22;7648;52.264;9.632;2024-03-08T06:33:58;-0.20;99.90
15095;DHT22;7648;52.264;9.632;2024-03-08T06:38:00;-0.20;99.90
15095;DHT22;7648;52.264;9.632;2024-03-08T06:42:03;-0.10;99.90
15095;DHT22;7648;52.264;9.632;2024-03-08T06:46:06;0.00;99.90
15095;DHT22;7648;52.264;9.632;2024-03-08T06:50:09;0.10;99.90
15095;DHT22;7648;52.264;9.632;2024-03-08T06:54:11;0.20;99.90
15095;DHT22;7648;52.264;9.632;2024-03-08T06:58:15;0.30;99.90
15095;DHT22;7648;52.264;9.632;2024-03-08T07:02:16;0.40;99.90
15095;DHT22;7648;52.264;9.632;2024-03-08T07:06:19;0.40;99.90
15095;DHT22;7648;52.264;9.632;2024-03-08T07:10:21;0.50;99.90
15095;DHT22;7648;52.264;9.632;2024-03-08T07:14:26;0.60;99.90
15095;DHT22;7648;52.264;9.632;2024-03-08T07:18:28;0.70;99.90
15095;DHT22;7648;52.264;9.632;2024-03-08T07:22:31;0.70;99.90
15095;DHT22;7648;52.264;9.632;2024-03-08T07:26:33;0.80;99.90
15095;DHT22;7648;52.264;9.632;2024-03-08T07:30:36;0.90;99.90
15095;DHT22;7648;52.264;9.632;2024-03-08T07:35:08;1.00;99.90
15095;DHT22;7648;52.264;9.632;2024-03-08T07:39:11;1.10;99.90
15095;DHT22;7648;52.264;9.632;2024-03-08T07:43:14;1.20;99.90
15095;DHT22;7648;52.264;9.632;2024-03-08T07:47:17;1.20;99.90
15095;DHT22;7648;52.264;9.632;2024-03-08T07:51:19;1.30;99.90
15095;DHT22;7648;52.264;9.632;2024-03-08T07:55:21;1.40;99.90
15095;DHT22;7648;52.264;9.632;2024-03-08T07:59:24;1.50;99.90
15095;DHT22;7648;52.264;9.632;2024-03-08T08:03:28;1.60;99.90
15095;DHT22;7648;52.264;9.632;2024-03-08T08:07:29;1.70;99.90
15095;DHT22;7648;52.264;9.632;2024-03-08T08:11:31;1.90;99.90
15095;DHT22;7648;52.264;9.632;2024-03-08T08:15:34;1.90;99.90
15095;DHT22;7648;52.264;9.632;2024-03-08T08:19:37;2.00;99.90
15095;DHT22;7648;52.264;9.632;2024-03-08T08:23:40;2.20;99.90
15095;DHT22;7648;52.264;9.632;2024-03-08T08:27:42;2.20;99.90
15095;DHT22;7648;52.264;9.632;2024-03-08T08:31:44;2.40;99.90
15095;DHT22;7648;52.264;9.632;2024-03-08T08:35:47;2.50;99.90
15095;DHT22;7648;52.264;9.632;2024-03-08T08:39:52;2.50;99.90
15095;DHT22;7648;52.264;9.632;2024-03-08T08:43:54;2.60;99.90
15095;DHT22;7648;52.264;9.632;2024-03-08T08:47:56;2.70;99.90
15095;DHT22;7648;52.264;9.632;2024-03-08T08:52:01;2.80;99.90
15095;DHT22;7648;52.264;9.632;2024-03-08T08:56:04;2.90;99.90
15095;DHT22;7648;52.264;9.632;2024-03-08T09:00:09;3.00;99.90
15095;DHT22;7648;52.264;9.632;2024-03-08T09:04:15;3.10;99.90
15095;DHT22;7648;52.264;9.632;2024-03-08T09:08:18;3.20;99.90
15095;DHT22;7648;52.264;9.632;2024-03-08T09:12:20;3.30;99.90
15095;DHT22;7648;52.264;9.632;2024-03-08T09:16:23;3.40;99.90
15095;DHT22;7648;52.264;9.632;2024-03-08T09:20:25;3.50;99.90
15095;DHT22;7648;52.264;9.632;2024-03-08T09:24:29;3.60;99.90
15095;DHT22;7648;52.264;9.632;2024-03-08T09:28:31;3.70;99.90
15095;DHT22;7648;52.264;9.632;2024-03-08T09:32:33;3.80;99.90
15095;DHT22;7648;52.264;9.632;2024-03-08T09:36:35;3.90;99.90
15095;DHT22;7648;52.264;9.632;2024-03-08T09:40:38;4.00;99.90
15095;DHT22;7648;52.264;9.632;2024-03-08T09:44:44;4.20;99.90
15095;DHT22;7648;52.264;9.632;2024-03-08T09:48:47;4.40;99.90
15095;DHT22;7648;52.264;9.632;2024-03-08T09:52:49;4.60;99.90
15095;DHT22;7648;52.264;9.632;2024-03-08T09:56:52;4.80;99.90
15095;DHT22;7648;52.264;9.632;2024-03-08T10:00:54;5.00;99.90
15095;DHT22;7648;52.264;9.632;2024-03-08T10:04:57;5.20;99.90
15095;DHT22;7648;52.264;9.632;2024-03-08T10:09:00;5.30;99.90
15095;DHT22;7648;52.264;9.632;2024-03-08T10:13:06;5.40;99.90
15095;DHT22;7648;52.264;9.632;2024-03-08T10:17:08;5.50;99.90
15095;DHT22;7648;52.264;9.632;2024-03-08T10:21:10;5.70;99.90
15095;DHT22;7648;52.264;9.632;2024-03-08T10:25:16;5.90;99.90
15095;DHT22;7648;52.264;9.632;2024-03-08T10:29:20;6.10;99.90
15095;DHT22;7648;52.264;9.632;2024-03-08T10:33:22;6.20;99.90
15095;DHT22;7648;52.264;9.632;2024-03-08T10:37:24;6.30;99.90
15095;DHT22;7648;52.264;9.632;2024-03-08T10:41:29;6.40;99.90
15095;DHT22;7648;52.264;9.632;2024-03-08T10:45:36;6.50;99.90
15095;DHT22;7648;52.264;9.632;2024-03-08T10:49:50;6.60;99.90
15095;DHT22;7648;52.264;9.632;2024-03-08T10:53:53;6.70;99.90
15095;DHT22;7648;52.264;9.632;2024-03-08T10:57:57;6.90;99.90
15095;DHT22;7648;52.264;9.632;2024-03-08T11:02:00;6.90;99.90
15095;DHT22;7648;52.264;9.632;2024-03-08T11:06:02;6.90;99.90
15095;DHT22;7648;52.264;9.632;2024-03-08T11:10:18;6.90;99.90
15095;DHT22;7648;52.264;9.632;2024-03-08T11:14:45;6.90;99.90
15095;DHT22;7648;52.264;9.632;2024-03-08T11:18:53;6.90;99.90
15095;DHT22;7648;52.264;9.632;2024-03-08T11:22:59;7.10;99.90
15095;DHT22;7648;52.264;9.632;2024-03-08T11:27:03;7.20;99.90
15095;DHT22;7648;52.264;9.632;2024-03-08T11:31:25;7.20;99.90
15095;DHT22;7648;52.264;9.632;2024-03-08T11:35:30;7.20;99.90
15095;DHT22;7648;52.264;9.632;2024-03-08T11:39:32;7.30;99.90
15095;DHT22;7648;52.264;9.632;2024-03-08T11:43:34;7.40;99.90
15095;DHT22;7648;52.264;9.632;2024-03-08T11:47:36;7.40;99.90
15095;DHT22;7648;52.264;9.632;2024-03-08T11:51:41;7.40;99.90
15095;DHT22;7648;52.264;9.632;2024-03-08T11:55:45;7.50;99.90
15095;DHT22;7648;52.264;9.632;2024-03-08T11:59:52;7.70;99.90
15095;DHT22;7648;52.264;9.632;2024-03-08T12:03:54;7.70;99.90
15095;DHT22;7648;52.264;9.632;2024-03-08T12:08:01;7.80;99.90
15095;DHT22;7648;52.264;9.632;2024-03-08T12:12:03;7.90;99.90
15095;DHT22;7648;52.264;9.632;2024-03-08T12:16:09;7.90;99.90
15095;DHT22;7648;52.264;9.632;2024-03-08T12:20:12;7.90;99.90
15095;DHT22;7648;52.264;9.632;2024-03-08T12:24:16;8.00;99.90
15095;DHT22;7648;52.264;9.632;2024-03-08T12:28:20;8.10;99.90
15095;DHT22;7648;52.264;9.632;2024-03-08T12:32:25;8.20;99.90
15095;DHT22;7648;52.264;9.632;2024-03-08T12:36:27;8.30;99.90
15095;DHT22;7648;52.264;9.632;2024-03-08T12:40:32;8.40;99.90
15095;DHT22;7648;52.264;9.632;2024-03-08T12:44:35;8.20;99.90
15095;DHT22;7648;52.264;9.632;2024-03-08T12:48:41;8.20;99.90
15095;DHT22;7648;52.264;9.632;2024-03-08T12:52:48;8.30;99.90
15095;DHT22;7648;52.264;9.632;2024-03-08T12:56:52;8.30;99.90
15095;DHT22;7648;52.264;9.632;2024-03-08T13:00:55;8.30;99.90
15095;DHT22;7648;52.264;9.632;2024-03-08T13:04:57;8.40;99.90
15095;DHT22;7648;52.264;9.632;2024-03-08T13:08:59;8.40;99.90
15095;DHT22;7648;52.264;9.632;2024-03-08T13:13:07;8.40;99.90
15095;DHT22;7648;52.264;9.632;2024-03-08T13:17:10;8.40;99.90
15095;DHT22;7648;52.264;9.632;2024-03-08T13:21:13;8.50;99.90
15095;DHT22;7648;52.264;9.632;2024-03-08T13:25:15;8.50;99.90
15095;DHT22;7648;52.264;9.632;2024-03-08T13:29:18;8.60;99.90
15095;DHT22;7648;52.264;9.632;2024-03-08T13:33:22;8.50;99.90
15095;DHT22;7648;52.264;9.632;2024-03-08T13:37:24;8.60;99.90
15095;DHT22;7648;52.264;9.632;2024-03-08T13:41:26;8.50;99.90
15095;DHT22;7648;52.264;9.632;2024-03-08T13:45:30;8.40;99.90
15095;DHT22;7648;52.264;9.632;2024-03-08T13:49:32;8.50;99.90
15095;DHT22;7648;52.264;9.632;2024-03-08T13:53:34;8.60;99.90
15095;DHT22;7648;52.264;9.632;2024-03-08T13:57:36;8.70;99.90
15095;DHT22;7648;52.264;9.632;2024-03-08T14:01:39;8.70;99.90
15095;DHT22;7648;52.264;9.632;2024-03-08T14:05:41;8.70;99.90
15095;DHT22;7648;52.264;9.632;2024-03-08T14:09:44;8.70;99.90
15095;DHT22;7648;52.264;9.632;2024-03-08T14:13:46;8.70;99.90
15095;DHT22;7648;52.264;9.632;2024-03-08T14:17:54;8.80;99.90
15095;DHT22;7648;52.264;9.632;2024-03-08T14:21:55;8.70;99.90
15095;DHT22;7648;52.264;9.632;2024-03-08T14:26:00;8.70;99.90
15095;DHT22;7648;52.264;9.632;2024-03-08T14:30:02;8.70;99.90
15095;DHT22;7648;52.264;9.632;2024-03-08T14:34:06;8.70;99.90
15095;DHT22;7648;52.264;9.632;2024-03-08T14:38:09;8.70;99.90
15095;DHT22;7648;52.264;9.632;2024-03-08T14:42:11;8.70;99.90
15095;DHT22;7648;52.264;9.632;2024-03-08T14:46:15;8.70;99.90
15095;DHT22;7648;52.264;9.632;2024-03-08T14:50:21;8.70;99.90
15095;DHT22;7648;52.264;9.632;2024-03-08T14:54:24;8.70;99.90
15095;DHT22;7648;52.264;9.632;2024-03-08T14:58:26;8.70;99.90
15095;DHT22;7648;52.264;9.632;2024-03-08T15:02:28;8.70;99.90
15095;DHT22;7648;52.264;9.632;2024-03-08T15:06:32;8.70;99.90
15095;DHT22;7648;52.264;9.632;2024-03-08T15:10:34;8.60;99.90
15095;DHT22;7648;52.264;9.632;2024-03-08T15:14:40;8.60;99.90
15095;DHT22;7648;52.264;9.632;2024-03-08T15:18:44;8.60;99.90
15095;DHT22;7648;52.264;9.632;2024-03-08T15:22:49;8.60;99.90
15095;DHT22;7648;52.264;9.632;2024-03-08T15:26:52;8.60;99.90
15095;DHT22;7648;52.264;9.632;2024-03-08T15:30:55;8.50;99.90
15095;DHT22;7648;52.264;9.632;2024-03-08T15:35:05;8.50;99.90
15095;DHT22;7648;52.264;9.632;2024-03-08T15:39:10;8.50;99.90
15095;DHT22;7648;52.264;9.632;2024-03-08T15:43:12;8.40;99.90
15095;DHT22;7648;52.264;9.632;2024-03-08T15:47:16;8.30;99.90
15095;DHT22;7648;52.264;9.632;2024-03-08T15:51:19;8.30;99.90
15095;DHT22;7648;52.264;9.632;2024-03-08T15:55:22;8.30;99.90
15095;DHT22;7648;52.264;9.632;2024-03-08T15:59:25;8.20;99.90
15095;DHT22;7648;52.264;9.632;2024-03-08T16:03:29;8.10;99.90
15095;DHT22;7648;52.264;9.632;2024-03-08T16:07:33;8.00;99.90
15095;DHT22;7648;52.264;9.632;2024-03-08T16:11:36;8.00;99.90
15095;DHT22;7648;52.264;9.632;2024-03-08T16:15:39;7.90;99.90
15095;DHT22;7648;52.264;9.632;2024-03-08T16:19:42;7.80;99.90
15095;DHT22;7648;52.264;9.632;2024-03-08T16:23:44;7.70;99.90
15095;DHT22;7648;52.264;9.632;2024-03-08T16:27:50;7.60;99.90
15095;DHT22;7648;52.264;9.632;2024-03-08T16:31:52;7.50;99.90
15095;DHT22;7648;52.264;9.632;2024-03-08T16:35:55;7.50;99.90
15095;DHT22;7648;52.264;9.632;2024-03-08T16:39:57;7.40;99.90
15095;DHT22;7648;52.264;9.632;2024-03-08T16:44:02;7.30;99.90
15095;DHT22;7648;52.264;9.632;2024-03-08T16:48:05;7.20;99.90
15095;DHT22;7648;52.264;9.632;2024-03-08T16:52:08;7.10;99.90
15095;DHT22;7648;52.264;9.632;2024-03-08T16:56:10;7.10;99.90
15095;DHT22;7648;52.264;9.632;2024-03-08T17:00:16;7.00;99.90
15095;DHT22;7648;52.264;9.632;2024-03-08T17:04:22;6.90;99.90
15095;DHT22;7648;52.264;9.632;2024-03-08T17:08:27;6.80;99.90
15095;DHT22;7648;52.264;9.632;2024-03-08T17:12:29;6.80;99.90
15095;DHT22;7648;52.264;9.632;2024-03-08T17:16:32;6.70;99.90
15095;DHT22;7648;52.264;9.632;2024-03-08T17:20:36;6.60;99.90
15095;DHT22;7648;52.264;9.632;2024-03-08T17:24:39;6.50;99.90
15095;DHT22;7648;52.264;9.632;2024-03-08T17:28:41;6.40;99.90
15095;DHT22;7648;52.264;9.632;2024-03-08T17:32:46;6.40;99.90
15095;DHT22;7648;52.264;9.632;2024-03-08T17:36:49;6.30;99.90
15095;DHT22;7648;52.264;9.632;2024-03-08T17:40:53;6.30;99.90
15095;DHT22;7648;52.264;9.632;2024-03-08T17:44:54;6.30;99.90
15095;DHT22;7648;52.264;9.632;2024-03-08T17:49:01;6.30;99.90
15095;DHT22;7648;52.264;9.632;2024-03-08T17:53:03;6.20;99.90
15095;DHT22;7648;52.264;9.632;2024-03-08T17:57:05;6.20;99.90
15095;DHT22;7648;52.264;9.632;2024-03-08T18:01:07;6.20;99.90
15095;DHT22;7648;52.264;9.632;2024-03-08T18:05:14;6.10;99.90
15095;DHT22;7648;52.264;9.632;2024-03-08T18:09:16;6.10;99.90
15095;DHT22;7648;52.264;9.632;2024-03-08T18:13:23;6.00;99.90
15095;DHT22;7648;52.264;9.632;2024-03-08T18:17:25;6.00;99.90
15095;DHT22;7648;52.264;9.632;2024-03-08T18:21:29;5.90;99.90
15095;DHT22;7648;52.264;9.632;2024-03-08T18:25:32;5.90;99.90
15095;DHT22;7648;52.264;9.632;2024-03-08T18:29:35;5.90;99.90
15095;DHT22;7648;52.264;9.632;2024-03-08T18:33:37;5.80;99.90
15095;DHT22;7648;52.264;9.632;2024-03-08T18:37:40;5.70;99.90
15095;DHT22;7648;52.264;9.632;2024-03-08T18:41:42;5.70;99.90
15095;DHT22;7648;52.264;9.632;2024-03-08T18:45:44;5.70;99.90
15095;DHT22;7648;52.264;9.632;2024-03-08T18:49:48;5.60;99.90
15095;DHT22;7648;52.264;9.632;2024-03-08T18:53:51;5.60;99.90
15095;DHT22;7648;52.264;9.632;2024-03-08T18:57:54;5.50;99.90
15095;DHT22;7648;52.264;9.632;2024-03-08T19:01:58;5.50;99.90
15095;DHT22;7648;52.264;9.632;2024-03-08T19:06:00;5.40;99.90
15095;DHT22;7648;52.264;9.632;2024-03-08T19:10:04;5.40;99.90
15095;DHT22;7648;52.264;9.632;2024-03-08T19:14:07;5.40;99.90
15095;DHT22;7648;52.264;9.632;2024-03-08T19:18:09;5.40;99.90
15095;DHT22;7648;52.264;9.632;2024-03-08T19:22:13;5.30;99.90
15095;DHT22;7648;52.264;9.632;2024-03-08T19:26:18;5.20;99.90
15095;DHT22;7648;52.264;9.632;2024-03-08T19:30:23;5.10;99.90
15095;DHT22;7648;52.264;9.632;2024-03-08T19:34:27;5.10;99.90
15095;DHT22;7648;52.264;9.632;2024-03-08T19:38:29;4.90;99.90
15095;DHT22;7648;52.264;9.632;2024-03-08T19:42:33;4.90;99.90
15095;DHT22;7648;52.264;9.632;2024-03-08T19:46:36;4.80;99.90
15095;DHT22;7648;52.264;9.632;2024-03-08T19:50:41;4.70;99.90
15095;DHT22;7648;52.264;9.632;2024-03-08T19:54:43;4.60;99.90
15095;DHT22;7648;52.264;9.632;2024-03-08T19:58:47;4.50;99.90
15095;DHT22;7648;52.264;9.632;2024-03-08T20:02:49;4.50;99.90
15095;DHT22;7648;52.264;9.632;2024-03-08T20:06:52;4.50;99.90
15095;DHT22;7648;52.264;9.632;2024-03-08T20:10:55;4.50;99.90
15095;DHT22;7648;52.264;9.632;2024-03-08T20:15:05;4.50;99.90
15095;DHT22;7648;52.264;9.632;2024-03-08T20:19:09;4.50;99.90
15095;DHT22;7648;52.264;9.632;2024-03-08T20:23:12;4.50;99.90
15095;DHT22;7648;52.264;9.632;2024-03-08T20:27:14;4.50;99.90
15095;DHT22;7648;52.264;9.632;2024-03-08T20:31:18;4.40;99.90
15095;DHT22;7648;52.264;9.632;2024-03-08T20:35:20;4.40;99.90
15095;DHT22;7648;52.264;9.632;2024-03-08T20:39:22;4.40;99.90
15095;DHT22;7648;52.264;9.632;2024-03-08T20:43:24;4.40;99.90
15095;DHT22;7648;52.264;9.632;2024-03-08T20:47:28;4.50;99.90
15095;DHT22;7648;52.264;9.632;2024-03-08T20:51:35;4.50;99.90
15095;DHT22;7648;52.264;9.632;2024-03-08T20:55:38;4.50;99.90
15095;DHT22;7648;52.264;9.632;2024-03-08T20:59:40;4.50;99.90
15095;DHT22;7648;52.264;9.632;2024-03-08T21:03:44;4.50;99.90
15095;DHT22;7648;52.264;9.632;2024-03-08T21:07:47;4.40;99.90
15095;DHT22;7648;52.264;9.632;2024-03-08T21:11:48;4.40;99.90
15095;DHT22;7648;52.264;9.632;2024-03-08T21:15:51;4.30;99.90
15095;DHT22;7648;52.264;9.632;2024-03-08T21:19:54;4.20;99.90
15095;DHT22;7648;52.264;9.632;2024-03-08T21:23:57;4.20;99.90
15095;DHT22;7648;52.264;9.632;2024-03-08T21:27:59;4.20;99.90
15095;DHT22;7648;52.264;9.632;2024-03-08T21:32:02;4.20;99.90
15095;DHT22;7648;52.264;9.632;2024-03-08T21:36:07;4.20;99.90
15095;DHT22;7648;52.264;9.632;2024-03-08T21:40:10;4.10;99.90
15095;DHT22;7648;52.264;9.632;2024-03-08T21:44:12;4.10;99.90
15095;DHT22;7648;52.264;9.632;2024-03-08T21:48:16;4.10;99.90
15095;DHT22;7648;52.264;9.632;2024-03-08T21:52:19;4.20;99.90
15095;DHT22;7648;52.264;9.632;2024-03-08T21:56:21;4.20;99.90
15095;DHT22;7648;52.264;9.632;2024-03-08T22:00:23;4.10;99.90
15095;DHT22;7648;52.264;9.632;2024-03-08T22:04:25;4.10;99.90
15095;DHT22;7648;52.264;9.632;2024-03-08T22:08:30;4.10;99.90
15095;DHT22;7648;52.264;9.632;2024-03-08T22:12:34;4.00;99.90
15095;DHT22;7648;52.264;9.632;2024-03-08T22:16:35;4.00;99.90
15095;DHT22;7648;52.264;9.632;2024-03-08T22:20:39;3.90;99.90
15095;DHT22;7648;52.264;9.632;2024-03-08T22:24:42;3.80;99.90
15095;DHT22;7648;52.264;9.632;2024-03-08T22:28:49;3.80;99.90
15095;DHT22;7648;52.264;9.632;2024-03-08T22:32:53;3.80;99.90
15095;DHT22;7648;52.264;9.632;2024-03-08T22:36:55;3.80;99.90
15095;DHT22;7648;52.264;9.632;2024-03-08T22:40:58;3.70;99.90
15095;DHT22;7648;52.264;9.632;2024-03-08T22:45:01;3.70;99.90
15095;DHT22;7648;52.264;9.632;2024-03-08T22:49:04;3.70;99.90
15095;DHT22;7648;52.264;9.632;2024-03-08T22:53:08;3.70;99.90
15095;DHT22;7648;52.264;9.632;2024-03-08T22:57:15;3.60;99.90
15095;DHT22;7648;52.264;9.632;2024-03-08T23:01:19;3.50;99.90
15095;DHT22;7648;52.264;9.632;2024-03-08T23:05:23;3.50;99.90
15095;DHT22;7648;52.264;9.632;2024-03-08T23:09:27;3.40;99.90
15095;DHT22;7648;52.264;9.632;2024-03-08T23:13:33;3.40;99.90
15095;DHT22;7648;52.264;9.632;2024-03-08T23:17:40;3.30;99.90
15095;DHT22;7648;52.264;9.632;2024-03-08T23:21:42;3.20;99.90
15095;DHT22;7648;52.264;9.632;2024-03-08T23:25:44;3.10;99.90
15095;DHT22;7648;52.264;9.632;2024-03-08T23:29:47;3.00;99.90
15095;DHT22;7648;52.264;9.632;2024-03-08T23:33:49;3.00;99.90
15095;DHT22;7648;52.264;9.632;2024-03-08T23:37:51;2.90;99.90
15095;DHT22;7648;52.264;9.632;2024-03-08T23:41:53;2.80;99.90
15095;DHT22;7648;52.264;9.632;2024-03-08T23:45:56;2.80;99.90
15095;DHT22;7648;52.264;9.632;2024-03-08T23:49:59;2.80;99.90
15095;DHT22;7648;52.264;9.632;2024-03-08T23:54:01;2.80;99.90
15095;DHT22;7648;52.264;9.632;2024-03-08T23:58:05;2.70;99.90
